createdAt,value
2018-11-26T00:01:08.346Z,100455.61
2018-11-26T00:03:36.805Z,100459.59
2018-11-26T00:06:05.094Z,100463.78
2018-11-26T00:08:33.110Z,100463.12
2018-11-26T00:11:44.887Z,100456.30
2018-11-26T00:14:12.898Z,100449.77
2018-11-26T00:16:40.980Z,100456.31
2018-11-26T00:19:08.968Z,100467.75
2018-11-26T00:21:36.990Z,100465.34
2018-11-26T00:24:05.056Z,100464.36
2018-11-26T00:26:33.102Z,100463.13
2018-11-26T00:29:01.099Z,100459.92
2018-11-26T00:31:29.129Z,100460.72
2018-11-26T00:33:57.135Z,100459.31
2018-11-26T00:36:25.129Z,100449.73
2018-11-26T00:38:53.148Z,100458.12
2018-11-26T00:41:21.141Z,100450.91
2018-11-26T00:43:49.146Z,100448.95
2018-11-26T00:46:17.189Z,100442.93
2018-11-26T00:48:45.209Z,100442.59
2018-11-26T00:51:13.217Z,100436.45
2018-11-26T00:53:41.285Z,100439.81
2018-11-26T00:56:09.285Z,100439.61
2018-11-26T00:58:37.290Z,100436.66
2018-11-26T01:01:05.658Z,100429.42
2018-11-26T01:03:33.693Z,100427.45
2018-11-26T01:06:01.696Z,100432.05
2018-11-26T01:08:29.793Z,100425.17
2018-11-26T01:10:57.801Z,100434.79
2018-11-26T01:13:25.856Z,100434.27
2018-11-26T01:15:53.930Z,100431.91
2018-11-26T01:18:21.993Z,100437.41
2018-11-26T01:20:50.098Z,100443.48
2018-11-26T01:23:18.101Z,100444.20
2018-11-26T01:25:46.266Z,100444.48
2018-11-26T01:28:14.304Z,100449.91
2018-11-26T01:30:42.319Z,100450.27
2018-11-26T01:33:10.318Z,100445.55
2018-11-26T01:35:38.318Z,100438.76
2018-11-26T01:38:06.329Z,100440.45
2018-11-26T01:40:39.838Z,100444.73
2018-11-26T01:43:07.853Z,100447.78
2018-11-26T01:45:36.073Z,100449.05
2018-11-26T01:48:04.093Z,100449.05
2018-11-26T01:50:32.090Z,100446.27
2018-11-26T01:53:00.118Z,100447.66
2018-11-26T01:55:28.121Z,100442.42
2018-11-26T01:57:56.149Z,100447.45
2018-11-26T02:00:25.458Z,100454.41
2018-11-26T02:02:53.736Z,100444.13
2018-11-26T02:05:21.768Z,100444.45
2018-11-26T02:07:49.767Z,100439.58
2018-11-26T02:10:19.051Z,100445.98
2018-11-26T02:12:47.130Z,100441.39
2018-11-26T02:15:26.625Z,100436.88
2018-11-26T02:17:54.685Z,100439.92
2018-11-26T02:20:22.829Z,100435.75
2018-11-26T02:22:50.857Z,100431.66
2018-11-26T02:25:18.870Z,100436.16
2018-11-26T02:27:46.913Z,100435.91
2018-11-26T02:30:14.985Z,100433.27
2018-11-26T02:32:43.008Z,100432.92
2018-11-26T02:35:11.046Z,100433.78
2018-11-26T02:37:39.052Z,100436.44
2018-11-26T02:40:09.396Z,100435.04
2018-11-26T02:42:37.397Z,100440.94
2018-11-26T02:45:06.014Z,100434.23
2018-11-26T02:47:34.018Z,100427.45
2018-11-26T02:50:02.146Z,100432.97
2018-11-26T02:52:30.193Z,100429.72
2018-11-26T02:54:58.314Z,100431.31
2018-11-26T02:57:26.333Z,100426.19
2018-11-26T02:59:54.341Z,100434.03
2018-11-26T03:02:22.389Z,100426.31
2018-11-26T03:04:50.449Z,100423.50
2018-11-26T03:07:18.472Z,100426.88
2018-11-26T03:09:46.516Z,100429.23
2018-11-26T03:12:14.521Z,100430.63
2018-11-26T03:14:42.538Z,100429.48
2018-11-26T03:17:10.541Z,100428.70
2018-11-26T03:19:38.686Z,100429.66
2018-11-26T03:22:06.754Z,100433.48
2018-11-26T03:24:34.821Z,100434.00
2018-11-26T03:27:02.997Z,100431.71
2018-11-26T03:29:31.070Z,100425.66
2018-11-26T03:31:59.263Z,100430.58
2018-11-26T03:34:27.273Z,100434.55
2018-11-26T03:36:55.265Z,100431.91
2018-11-26T03:39:23.305Z,100430.78
2018-11-26T03:41:51.325Z,100438.06
2018-11-26T03:44:19.313Z,100438.55
2018-11-26T03:46:47.310Z,100432.96
2018-11-26T03:49:15.322Z,100434.06
2018-11-26T03:51:43.320Z,100431.91
2018-11-26T03:54:11.330Z,100427.09
2018-11-26T03:56:39.362Z,100426.01
2018-11-26T03:59:07.388Z,100424.53
2018-11-26T04:01:35.458Z,100428.29
2018-11-26T04:04:03.513Z,100425.33
2018-11-26T04:06:31.607Z,100424.48
2018-11-26T04:08:59.610Z,100426.76
2018-11-26T04:11:27.636Z,100421.80
2018-11-26T04:13:55.709Z,100427.45
2018-11-26T04:16:23.792Z,100432.17
2018-11-26T04:18:51.791Z,100429.86
2018-11-26T04:21:19.853Z,100434.75
2018-11-26T04:23:47.882Z,100434.45
2018-11-26T04:26:15.946Z,100437.31
2018-11-26T04:28:43.965Z,100439.83
2018-11-26T04:31:11.985Z,100433.64
2018-11-26T04:33:39.981Z,100438.73
2018-11-26T04:36:07.989Z,100436.80
2018-11-26T04:38:35.990Z,100437.31
2018-11-26T04:41:03.985Z,100444.42
2018-11-26T04:43:31.986Z,100433.85
2018-11-26T04:46:00.025Z,100440.38
2018-11-26T04:48:28.106Z,100441.85
2018-11-26T04:50:56.119Z,100434.89
2018-11-26T04:53:24.121Z,100442.61
2018-11-26T04:55:52.149Z,100447.03
2018-11-26T04:58:20.161Z,100446.02
2018-11-26T05:00:48.151Z,100451.92
2018-11-26T05:03:16.199Z,100448.83
2018-11-26T05:05:44.213Z,100451.78
2018-11-26T05:08:12.205Z,100451.70
2018-11-26T05:10:40.216Z,100443.27
2018-11-26T05:13:08.223Z,100448.72
2018-11-26T05:15:36.241Z,100453.28
2018-11-26T05:18:04.432Z,100450.31
2018-11-26T05:20:32.518Z,100445.21
2018-11-26T05:23:00.528Z,100446.84
2018-11-26T05:25:28.526Z,100445.81
2018-11-26T05:27:56.518Z,100440.55
2018-11-26T05:30:24.525Z,100441.78
2018-11-26T05:32:52.520Z,100453.30
2018-11-26T05:35:20.517Z,100445.90
2018-11-26T05:37:48.509Z,100454.80
2018-11-26T05:40:16.513Z,100456.00
2018-11-26T05:42:44.613Z,100449.85
2018-11-26T05:45:13.981Z,100462.28
2018-11-26T05:47:41.963Z,100450.53
2018-11-26T05:50:11.144Z,100459.55
2018-11-26T05:52:39.796Z,100463.93
2018-11-26T05:55:09.773Z,100466.87
2018-11-26T05:57:37.776Z,100477.63
2018-11-26T06:00:11.818Z,100475.23
2018-11-26T06:02:39.825Z,100473.44
2018-11-26T06:05:08.182Z,100474.22
2018-11-26T06:07:36.189Z,100480.03
2018-11-26T06:10:04.225Z,100478.48
2018-11-26T06:12:32.288Z,100478.52
2018-11-26T06:15:00.306Z,100480.38
2018-11-26T06:17:28.302Z,100481.33
2018-11-26T06:19:56.442Z,100475.27
2018-11-26T06:22:24.506Z,100477.20
2018-11-26T06:24:52.496Z,100479.64
2018-11-26T06:27:20.541Z,100484.89
2018-11-26T06:29:48.637Z,100482.91
2018-11-26T06:32:16.641Z,100485.94
2018-11-26T06:34:44.640Z,100489.03
2018-11-26T06:37:12.646Z,100495.33
2018-11-26T06:39:40.841Z,100493.64
2018-11-26T06:42:08.841Z,100492.99
2018-11-26T06:44:36.834Z,100492.34
2018-11-26T06:47:05.171Z,100499.80
2018-11-26T06:49:33.190Z,100497.59
2018-11-26T06:52:01.255Z,100495.20
2018-11-26T06:54:29.254Z,100497.61
2018-11-26T06:56:57.257Z,100496.51
2018-11-26T06:59:25.245Z,100501.11
2018-11-26T07:01:53.258Z,100494.88
2018-11-26T07:04:21.281Z,100502.56
2018-11-26T07:06:49.292Z,100501.92
2018-11-26T07:09:17.274Z,100506.57
2018-11-26T07:11:45.275Z,100512.27
2018-11-26T07:14:13.263Z,100514.23
2018-11-26T07:16:41.256Z,100520.88
2018-11-26T07:19:09.242Z,100516.41
2018-11-26T07:21:37.244Z,100523.38
2018-11-26T07:24:05.442Z,100517.12
2018-11-26T07:26:33.495Z,100521.46
2018-11-26T07:29:01.501Z,100524.06
2018-11-26T07:31:29.743Z,100526.08
2018-11-26T07:33:57.747Z,100519.59
2018-11-26T07:36:25.745Z,100527.91
2018-11-26T07:38:53.737Z,100525.95
2018-11-26T07:41:21.726Z,100528.76
2018-11-26T07:43:49.714Z,100530.29
2018-11-26T07:46:17.709Z,100527.33
2018-11-26T07:48:45.757Z,100538.23
2018-11-26T07:51:13.781Z,100531.14
2018-11-26T07:53:41.814Z,100533.38
2018-11-26T07:56:09.822Z,100531.80
2018-11-26T07:58:37.839Z,100534.06
2018-11-26T08:01:06.306Z,100534.63
2018-11-26T08:03:34.594Z,100539.25
2018-11-26T08:06:08.745Z,100540.77
2018-11-26T08:08:30.596Z,100544.41
2018-11-26T08:10:58.602Z,100548.80
2018-11-26T08:13:26.600Z,100560.33
2018-11-26T08:15:54.614Z,100550.68
2018-11-26T08:18:22.629Z,100549.73
2018-11-26T08:20:50.687Z,100554.98
2018-11-26T08:23:18.691Z,100549.88
2018-11-26T08:25:46.690Z,100544.72
2018-11-26T08:28:14.681Z,100548.67
2018-11-26T08:30:42.677Z,100547.44
2018-11-26T08:33:10.669Z,100553.57
2018-11-26T08:35:38.671Z,100542.70
2018-11-26T08:38:07.588Z,100548.44
2018-11-26T08:40:40.983Z,100543.80
2018-11-26T08:43:14.585Z,100544.55
2018-11-26T08:45:51.186Z,100553.73
2018-11-26T08:48:24.731Z,100551.19
2018-11-26T08:50:52.728Z,100559.35
2018-11-26T08:53:20.760Z,100564.82
2018-11-26T08:55:48.810Z,100573.05
2018-11-26T08:58:16.801Z,100569.10
2018-11-26T09:00:44.801Z,100573.81
2018-11-26T09:03:18.311Z,100586.25
2018-11-26T09:05:50.472Z,100575.73
2018-11-26T09:08:18.605Z,100584.97
2018-11-26T09:10:46.599Z,100587.95
2018-11-26T09:13:14.609Z,100587.85
2018-11-26T09:15:42.595Z,100590.31
2018-11-26T09:18:10.585Z,100594.99
2018-11-26T09:20:38.565Z,100594.97
2018-11-26T09:23:06.851Z,100594.41
2018-11-26T09:25:34.858Z,100597.41
2018-11-26T09:28:02.859Z,100599.98
2018-11-26T09:30:31.090Z,100602.72
2018-11-26T09:32:58.944Z,100594.59
2018-11-26T09:35:27.006Z,100590.97
2018-11-26T09:37:55.069Z,100599.92
2018-11-26T09:40:23.090Z,100610.73
2018-11-26T09:42:51.070Z,100609.27
2018-11-26T09:45:19.073Z,100604.63
2018-11-26T09:47:47.107Z,100611.34
2018-11-26T09:50:16.249Z,100602.86
2018-11-26T09:52:44.232Z,100608.83
2018-11-26T09:55:13.010Z,100609.67
2018-11-26T09:57:41.074Z,100613.22
2018-11-26T10:00:12.542Z,100614.06
2018-11-26T10:02:41.076Z,100612.80
2018-11-26T10:05:12.467Z,100608.89
2018-11-26T10:07:40.474Z,100613.77
2018-11-26T10:10:09.964Z,100601.62
2018-11-26T10:12:38.305Z,100604.69
2018-11-26T10:15:16.257Z,100592.23
2018-11-26T10:17:44.255Z,100598.10
2018-11-26T10:20:12.541Z,100601.98
2018-11-26T10:22:40.925Z,100602.34
2018-11-26T10:25:13.158Z,100603.46
2018-11-26T10:27:41.325Z,100597.34
2018-11-26T10:30:11.252Z,100590.22
2018-11-26T10:32:39.510Z,100586.07
2018-11-26T10:35:09.761Z,100584.25
2018-11-26T10:37:37.974Z,100578.91
2018-11-26T10:40:09.119Z,100585.27
2018-11-26T10:42:37.139Z,100585.53
2018-11-26T10:45:06.230Z,100581.55
2018-11-26T10:47:34.209Z,100589.28
2018-11-26T10:50:02.201Z,100583.88
2018-11-26T10:52:30.285Z,100585.98
2018-11-26T10:54:58.290Z,100579.06
2018-11-26T10:57:26.298Z,100575.73
2018-11-26T10:59:54.291Z,100578.44
2018-11-26T11:02:27.646Z,100579.86
2018-11-26T11:04:55.649Z,100578.88
2018-11-26T11:07:23.658Z,100580.11
2018-11-26T11:09:51.654Z,100580.80
2018-11-26T11:12:19.657Z,100578.66
2018-11-26T11:14:47.649Z,100576.33
2018-11-26T11:17:15.698Z,100575.73
2018-11-26T11:19:43.697Z,100582.94
2018-11-26T11:22:12.543Z,100583.75
2018-11-26T11:24:40.537Z,100577.66
2018-11-26T11:27:08.540Z,100580.55
2018-11-26T11:29:36.834Z,100588.05
2018-11-26T11:32:04.569Z,100581.91
2018-11-26T11:34:32.563Z,100582.55
2018-11-26T11:37:00.595Z,100584.41
2018-11-26T11:39:28.605Z,100582.60
2018-11-26T11:41:56.595Z,100580.06
2018-11-26T11:44:24.595Z,100585.14
2018-11-26T11:46:52.751Z,100587.23
2018-11-26T11:49:20.755Z,100583.27
2018-11-26T11:51:48.763Z,100584.05
2018-11-26T11:54:16.761Z,100586.25
2018-11-26T11:56:44.786Z,100588.87
2018-11-26T11:59:12.779Z,100591.12
2018-11-26T12:01:40.779Z,100581.91
2018-11-26T12:04:08.799Z,100589.64
2018-11-26T12:06:36.787Z,100585.38
2018-11-26T12:09:07.982Z,100587.43
2018-11-26T12:11:36.083Z,100587.23
2018-11-26T12:14:04.083Z,100585.38
2018-11-26T12:16:32.100Z,100585.48
2018-11-26T12:19:00.264Z,100583.47
2018-11-26T12:21:28.262Z,100588.50
2018-11-26T12:23:56.374Z,100582.31
2018-11-26T12:26:24.397Z,100580.80
2018-11-26T12:28:52.552Z,100584.91
2018-11-26T12:31:20.618Z,100581.25
2018-11-26T12:33:48.649Z,100584.52
2018-11-26T12:36:16.682Z,100582.86
2018-11-26T12:38:44.726Z,100583.38
2018-11-26T12:41:12.731Z,100584.45
2018-11-26T12:43:40.755Z,100580.98
2018-11-26T12:46:08.859Z,100583.27
2018-11-26T12:48:36.847Z,100582.80
2018-11-26T12:51:05.183Z,100582.14
2018-11-26T12:53:33.159Z,100588.96
2018-11-26T12:56:01.130Z,100590.18
2018-11-26T12:58:29.134Z,100592.67
2018-11-26T13:00:57.125Z,100582.47
2018-11-26T13:03:25.117Z,100585.38
2018-11-26T13:05:53.100Z,100584.50
2018-11-26T13:08:21.099Z,100580.13
2018-11-26T13:10:49.143Z,100578.46
2018-11-26T13:13:17.290Z,100574.20
2018-11-26T13:15:45.326Z,100576.20
2018-11-26T13:18:13.334Z,100570.73
2018-11-26T13:20:41.350Z,100572.52
2018-11-26T13:23:09.904Z,100568.64
2018-11-26T13:25:41.802Z,100563.66
2018-11-26T13:28:07.835Z,100562.14
2018-11-26T13:30:41.359Z,100567.78
2018-11-26T13:33:11.891Z,100565.05
2018-11-26T13:35:39.883Z,100563.33
2018-11-26T13:38:08.633Z,100561.50
2018-11-26T13:40:36.633Z,100573.41
2018-11-26T13:43:07.639Z,100572.31
2018-11-26T13:45:37.191Z,100568.70
2018-11-26T13:48:07.154Z,100570.52
2018-11-26T13:50:36.871Z,100571.20
2018-11-26T13:53:05.369Z,100571.78
2018-11-26T13:55:33.342Z,100572.45
2018-11-26T13:58:01.458Z,100579.59
2018-11-26T14:00:29.440Z,100571.62
2018-11-26T14:02:57.446Z,100578.47
2018-11-26T14:05:25.459Z,100579.19
2018-11-26T14:07:53.511Z,100582.14
2018-11-26T14:10:23.667Z,100582.74
2018-11-26T14:13:01.160Z,100585.16
2018-11-26T14:15:29.203Z,100584.91
2018-11-26T14:17:57.207Z,100581.12
2018-11-26T14:20:25.252Z,100577.33
2018-11-26T14:22:53.232Z,100586.22
2018-11-26T14:25:21.216Z,100586.52
2018-11-26T14:27:49.432Z,100583.77
2018-11-26T14:30:22.671Z,100587.33
2018-11-26T14:32:50.675Z,100583.97
2018-11-26T14:35:18.662Z,100584.43
2018-11-26T14:37:48.895Z,100585.35
2018-11-26T14:40:28.915Z,100587.52
2018-11-26T14:42:56.934Z,100587.34
2018-11-26T14:45:24.973Z,100587.06
2018-11-26T14:47:53.079Z,100583.50
2018-11-26T14:50:21.059Z,100587.58
2018-11-26T14:52:49.699Z,100580.63
2018-11-26T14:55:20.923Z,100580.30
2018-11-26T14:57:48.937Z,100581.44
2018-11-26T15:00:17.995Z,100580.13
2018-11-26T15:02:46.000Z,100581.14
2018-11-26T15:05:14.254Z,100582.52
2018-11-26T15:07:42.251Z,100587.00
2018-11-26T15:10:17.078Z,100588.64
2018-11-26T15:12:45.501Z,100585.61
2018-11-26T15:15:18.911Z,100585.70
2018-11-26T15:17:46.931Z,100587.96
2018-11-26T15:20:17.075Z,100592.03
2018-11-26T15:22:45.077Z,100595.25
2018-11-26T15:25:14.191Z,100589.69
2018-11-26T15:27:42.283Z,100592.30
2018-11-26T15:30:12.432Z,100604.09
2018-11-26T15:32:46.970Z,100598.38
2018-11-26T15:35:16.091Z,100601.67
2018-11-26T15:37:44.282Z,100600.13
2018-11-26T15:40:13.235Z,100603.80
2018-11-26T15:42:41.267Z,100610.66
2018-11-26T15:45:40.242Z,100611.66
2018-11-26T15:48:09.815Z,100614.89
2018-11-26T15:50:37.835Z,100616.53
2018-11-26T15:53:06.864Z,100618.84
2018-11-26T15:55:34.875Z,100621.84
2018-11-26T15:58:02.866Z,100625.68
2018-11-26T16:00:30.865Z,100627.78
2018-11-26T16:02:58.932Z,100625.86
2018-11-26T16:05:30.169Z,100629.76
2018-11-26T16:08:02.797Z,100629.99
2018-11-26T16:10:30.798Z,100623.61
2018-11-26T16:13:00.243Z,100626.27
2018-11-26T16:15:29.730Z,100627.01
2018-11-26T16:17:59.287Z,100622.81
2018-11-26T16:20:27.930Z,100626.36
2018-11-26T16:22:56.847Z,100629.31
2018-11-26T16:25:25.207Z,100635.73
2018-11-26T16:27:53.222Z,100637.22
2018-11-26T16:30:21.219Z,100642.98
2018-11-26T16:32:53.697Z,100642.59
2018-11-26T16:35:28.138Z,100649.61
2018-11-26T16:37:56.131Z,100646.89
2018-11-26T16:40:24.135Z,100649.89
2018-11-26T16:42:52.187Z,100653.56
2018-11-26T16:45:21.368Z,100659.24
2018-11-26T16:47:50.532Z,100655.28
2018-11-26T16:50:19.644Z,100657.18
2018-11-26T16:52:47.731Z,100663.60
2018-11-26T16:55:16.523Z,100665.26
2018-11-26T16:57:44.523Z,100666.73
2018-11-26T17:00:17.403Z,100663.15
2018-11-26T17:02:46.158Z,100669.98
2018-11-26T17:05:16.420Z,100669.48
2018-11-26T17:07:44.467Z,100667.20
2018-11-26T17:10:12.550Z,100675.34
2018-11-26T17:12:41.047Z,100674.71
2018-11-26T17:15:11.804Z,100681.05
2018-11-26T17:17:39.815Z,100677.97
2018-11-26T17:20:09.587Z,100680.63
2018-11-26T17:22:37.603Z,100681.52
2018-11-26T17:25:07.215Z,100681.98
2018-11-26T17:27:35.228Z,100682.36
2018-11-26T17:30:04.686Z,100680.11
2018-11-26T17:32:32.734Z,100681.77
2018-11-26T17:35:00.763Z,100689.24
2018-11-26T17:37:28.768Z,100688.91
2018-11-26T17:39:56.787Z,100693.17
2018-11-26T17:42:24.802Z,100694.90
2018-11-26T17:44:52.824Z,100693.64
2018-11-26T17:47:20.823Z,100693.89
2018-11-26T17:49:48.845Z,100693.81
2018-11-26T17:52:16.832Z,100699.97
2018-11-26T17:54:44.883Z,100703.27
2018-11-26T17:57:12.874Z,100701.28
2018-11-26T17:59:40.914Z,100708.33
2018-11-26T18:02:08.914Z,100704.75
2018-11-26T18:04:36.916Z,100706.17
2018-11-26T18:07:04.918Z,100708.20
2018-11-26T18:09:32.999Z,100710.78
2018-11-26T18:12:01.075Z,100720.40
2018-11-26T18:14:29.067Z,100718.37
2018-11-26T18:16:57.194Z,100718.20
2018-11-26T18:19:25.249Z,100725.13
2018-11-26T18:21:53.255Z,100726.91
2018-11-26T18:24:21.274Z,100725.55
2018-11-26T18:26:49.321Z,100723.09
2018-11-26T18:29:17.365Z,100724.04
2018-11-26T18:31:45.507Z,100732.66
2018-11-26T18:34:13.500Z,100734.94
2018-11-26T18:36:41.574Z,100735.82
2018-11-26T18:39:10.419Z,100738.56
2018-11-26T18:41:38.455Z,100741.48
2018-11-26T18:44:06.870Z,100733.78
2018-11-26T18:46:34.913Z,100733.91
2018-11-26T18:49:03.000Z,100739.87
2018-11-26T18:51:31.199Z,100742.91
2018-11-26T18:53:59.193Z,100747.96
2018-11-26T18:56:27.227Z,100743.19
2018-11-26T18:58:55.282Z,100753.14
2018-11-26T19:01:23.306Z,100754.48
2018-11-26T19:03:51.367Z,100755.41
2018-11-26T19:06:19.428Z,100752.91
2018-11-26T19:08:47.424Z,100757.66
2018-11-26T19:11:16.834Z,100762.27
2018-11-26T19:13:50.975Z,100764.42
2018-11-26T19:16:21.399Z,100766.88
2018-11-26T19:18:49.411Z,100767.42
2018-11-26T19:21:17.495Z,100771.81
2018-11-26T19:23:45.773Z,100773.23
2018-11-26T19:26:13.765Z,100774.93
2018-11-26T19:28:41.757Z,100767.50
2018-11-26T19:31:09.804Z,100770.61
2018-11-26T19:33:37.796Z,100771.92
2018-11-26T19:36:06.584Z,100778.05
2018-11-26T19:38:34.633Z,100779.35
2018-11-26T19:41:02.773Z,100780.39
2018-11-26T19:43:30.978Z,100783.97
2018-11-26T19:45:58.986Z,100789.36
2018-11-26T19:48:27.015Z,100787.70
2018-11-26T19:50:55.060Z,100800.08
2018-11-26T19:53:23.067Z,100794.08
2018-11-26T19:55:51.537Z,100796.50
2018-11-26T19:58:19.170Z,100804.19
2018-11-26T20:00:47.247Z,100806.59
2018-11-26T20:03:19.921Z,100809.09
2018-11-26T20:05:55.907Z,100811.59
2018-11-26T20:08:23.900Z,100806.34
2018-11-26T20:10:52.227Z,100810.13
2018-11-26T20:13:20.294Z,100809.50
2018-11-26T20:15:48.316Z,100804.28
2018-11-26T20:18:16.368Z,100813.40
2018-11-26T20:20:44.537Z,100815.94
2018-11-26T20:23:12.532Z,100823.08
2018-11-26T20:25:41.697Z,100830.44
2018-11-26T20:28:09.778Z,100834.16
2018-11-26T20:30:37.941Z,100832.04
2018-11-26T20:33:06.640Z,100836.36
2018-11-26T20:35:34.850Z,100834.14
2018-11-26T20:38:03.971Z,100843.30
2018-11-26T20:40:32.007Z,100842.66
2018-11-26T20:43:00.035Z,100848.24
2018-11-26T20:45:28.129Z,100851.24
2018-11-26T20:47:56.242Z,100851.73
2018-11-26T20:50:26.362Z,100855.48
2018-11-26T20:52:54.382Z,100855.66
2018-11-26T20:55:23.653Z,100861.67
2018-11-26T20:57:52.720Z,100855.16
2018-11-26T21:00:21.906Z,100866.19
2018-11-26T21:02:51.282Z,100864.13
2018-11-26T21:05:19.344Z,100869.09
2018-11-26T21:07:47.369Z,100870.41
2018-11-26T21:10:16.168Z,100870.18
2018-11-26T21:12:44.206Z,100877.77
2018-11-26T21:15:13.567Z,100874.34
2018-11-26T21:17:42.365Z,100878.39
2018-11-26T21:20:15.220Z,100878.27
2018-11-26T21:22:43.226Z,100877.17
2018-11-26T21:25:13.937Z,100881.23
2018-11-26T21:27:41.945Z,100887.52
2018-11-26T21:30:16.933Z,100888.20
2018-11-26T21:32:45.041Z,100889.19
2018-11-26T21:35:15.210Z,100887.48
2018-11-26T21:37:44.522Z,100883.67
2018-11-26T21:40:13.623Z,100889.52
2018-11-26T21:42:42.956Z,100887.66
2018-11-26T21:45:13.499Z,100884.77
2018-11-26T21:47:41.510Z,100884.87
2018-11-26T21:50:11.093Z,100884.16
2018-11-26T21:52:39.223Z,100882.88
2018-11-26T21:55:15.911Z,100878.80
2018-11-26T21:57:43.973Z,100886.77
2018-11-26T22:00:21.088Z,100886.01
2018-11-26T22:02:49.279Z,100890.20
2018-11-26T22:05:17.288Z,100890.75
2018-11-26T22:07:45.291Z,100889.23
2018-11-26T22:10:14.403Z,100887.86
2018-11-26T22:12:43.323Z,100893.75
2018-11-26T22:15:12.527Z,100899.83
2018-11-26T22:17:40.758Z,100899.95
2018-11-26T22:20:11.427Z,100904.16
2018-11-26T22:22:39.451Z,100904.32
2018-11-26T22:25:08.839Z,100899.89
2018-11-26T22:27:36.968Z,100901.31
2018-11-26T22:30:09.230Z,100904.17
2018-11-26T22:32:37.225Z,100905.98
2018-11-26T22:35:05.767Z,100901.97
2018-11-26T22:37:33.792Z,100906.25
2018-11-26T22:40:01.862Z,100897.91
2018-11-26T22:42:29.879Z,100903.91
2018-11-26T22:44:58.112Z,100909.69
2018-11-26T22:47:26.131Z,100911.39
2018-11-26T22:49:54.218Z,100910.45
2018-11-26T22:52:22.207Z,100906.29
2018-11-26T22:54:51.231Z,100904.87
2018-11-26T22:57:19.223Z,100913.63
2018-11-26T22:59:47.274Z,100912.05
2018-11-26T23:02:15.275Z,100912.25
2018-11-26T23:04:43.402Z,100912.57
2018-11-26T23:07:11.425Z,100914.80
2018-11-26T23:09:40.565Z,100911.06
2018-11-26T23:12:08.575Z,100907.70
2018-11-26T23:14:36.588Z,100911.19
2018-11-26T23:17:04.596Z,100913.77
2018-11-26T23:19:32.640Z,100913.31
2018-11-26T23:22:00.622Z,100915.09
2018-11-26T23:24:28.682Z,100915.90
2018-11-26T23:26:56.731Z,100919.89
2018-11-26T23:29:24.723Z,100914.33
2018-11-26T23:31:52.785Z,100917.66
2018-11-26T23:34:20.775Z,100918.32
2018-11-26T23:36:48.776Z,100918.63
2018-11-26T23:39:16.876Z,100917.22
2018-11-26T23:41:44.917Z,100923.62
2018-11-26T23:44:12.895Z,100925.05
2018-11-26T23:46:40.955Z,100923.53
2018-11-26T23:49:08.963Z,100919.73
2018-11-26T23:51:36.963Z,100921.11
2018-11-26T23:54:05.037Z,100927.28
2018-11-26T23:56:33.042Z,100923.72
2018-11-26T23:59:01.134Z,100928.70
